sensor_id;sensor_type;location;lat;lon;timestamp;pressure;altitude;pressure_sealevel;temperature;humidity
17260;BME280;8746;49.230;9.220;2023-02-19T00:02:11;100480.25;;;8.41;100.00
17260;BME280;8746;49.230;9.220;2023-02-19T00:04:36;100484.66;;;8.39;100.00
17260;BME280;8746;49.230;9.220;2023-02-19T00:07:02;100480.53;;;8.27;100.00
17260;BME280;8746;49.230;9.220;2023-02-19T00:09:27;100489.13;;;8.35;100.00
17260;BME280;8746;49.230;9.220;2023-02-19T00:11:52;100492.50;;;8.40;100.00
17260;BME280;8746;49.230;9.220;2023-02-19T00:14:19;100487.34;;;8.37;100.00
17260;BME280;8746;49.230;9.220;2023-02-19T00:16:46;100490.06;;;8.32;100.00
17260;BME280;8746;49.230;9.220;2023-02-19T00:19:13;100501.38;;;8.36;100.00
17260;BME280;8746;49.230;9.220;2023-02-19T00:21:39;100491.56;;;8.44;100.00
17260;BME280;8746;49.230;9.220;2023-02-19T00:24:06;100486.31;;;8.43;100.00
17260;BME280;8746;49.230;9.220;2023-02-19T00:26:32;100491.50;;;8.46;100.00
17260;BME280;8746;49.230;9.220;2023-02-19T00:28:59;100484.81;;;8.32;100.00
17260;BME280;8746;49.230;9.220;2023-02-19T00:31:27;100468.75;;;8.45;100.00
17260;BME280;8746;49.230;9.220;2023-02-19T00:33:56;100465.53;;;8.32;100.00
17260;BME280;8746;49.230;9.220;2023-02-19T00:36:22;100448.78;;;8.36;100.00
17260;BME280;8746;49.230;9.220;2023-02-19T00:38:48;100454.19;;;8.30;100.00
17260;BME280;8746;49.230;9.220;2023-02-19T00:41:15;100440.34;;;8.22;100.00
17260;BME280;8746;49.230;9.220;2023-02-19T00:46:10;100456.03;;;8.26;100.00
17260;BME280;8746;49.230;9.220;2023-02-19T00:48:36;100456.06;;;8.25;100.00
17260;BME280;8746;49.230;9.220;2023-02-19T00:51:02;100428.88;;;8.26;100.00
17260;BME280;8746;49.230;9.220;2023-02-19T00:53:27;100435.22;;;8.15;100.00
17260;BME280;8746;49.230;9.220;2023-02-19T00:55:53;100444.91;;;8.15;100.00
17260;BME280;8746;49.230;9.220;2023-02-19T00:58:18;100455.69;;;8.01;100.00
17260;BME280;8746;49.230;9.220;2023-02-19T01:00:43;100440.50;;;8.15;100.00
17260;BME280;8746;49.230;9.220;2023-02-19T01:03:09;100450.09;;;8.16;100.00
17260;BME280;8746;49.230;9.220;2023-02-19T01:05:34;100440.69;;;8.06;100.00
17260;BME280;8746;49.230;9.220;2023-02-19T01:07:59;100443.47;;;7.98;100.00
17260;BME280;8746;49.230;9.220;2023-02-19T01:10:25;100442.75;;;7.92;100.00
17260;BME280;8746;49.230;9.220;2023-02-19T01:12:50;100461.16;;;7.92;100.00
17260;BME280;8746;49.230;9.220;2023-02-19T01:15:16;100459.47;;;7.89;100.00
17260;BME280;8746;49.230;9.220;2023-02-19T01:17:41;100456.75;;;7.92;100.00
17260;BME280;8746;49.230;9.220;2023-02-19T01:20:07;100441.88;;;7.91;100.00
17260;BME280;8746;49.230;9.220;2023-02-19T01:22:32;100447.31;;;7.83;100.00
17260;BME280;8746;49.230;9.220;2023-02-19T01:24:58;100432.56;;;7.76;100.00
17260;BME280;8746;49.230;9.220;2023-02-19T01:27:23;100431.53;;;7.83;100.00
17260;BME280;8746;49.230;9.220;2023-02-19T01:29:49;100433.50;;;7.74;100.00
17260;BME280;8746;49.230;9.220;2023-02-19T01:32:14;100417.75;;;7.74;100.00
17260;BME280;8746;49.230;9.220;2023-02-19T01:34:39;100434.44;;;7.71;100.00
17260;BME280;8746;49.230;9.220;2023-02-19T01:37:05;100426.59;;;7.69;100.00
17260;BME280;8746;49.230;9.220;2023-02-19T01:39:36;100425.66;;;7.72;100.00
17260;BME280;8746;49.230;9.220;2023-02-19T01:42:01;100433.50;;;7.74;100.00
17260;BME280;8746;49.230;9.220;2023-02-19T01:46:52;100432.56;;;7.76;100.00
17260;BME280;8746;49.230;9.220;2023-02-19T01:49:45;100426.47;;;7.74;100.00
17260;BME280;8746;49.230;9.220;2023-02-19T01:52:32;100422.09;;;7.75;100.00
17260;BME280;8746;49.230;9.220;2023-02-19T01:55:00;100408.97;;;7.73;100.00
17260;BME280;8746;49.230;9.220;2023-02-19T01:57:31;100424.72;;;7.75;100.00
17260;BME280;8746;49.230;9.220;2023-02-19T02:00:02;100409.06;;;7.70;100.00
17260;BME280;8746;49.230;9.220;2023-02-19T02:02:28;100401.88;;;7.78;100.00
17260;BME280;8746;49.230;9.220;2023-02-19T02:04:55;100395.94;;;7.70;100.00
17260;BME280;8746;49.230;9.220;2023-02-19T02:07:22;100389.81;;;7.69;100.00
17260;BME280;8746;49.230;9.220;2023-02-19T02:10:07;100394.28;;;7.64;100.00
17260;BME280;8746;49.230;9.220;2023-02-19T02:12:45;100386.53;;;7.60;100.00
17260;BME280;8746;49.230;9.220;2023-02-19T02:15:11;100379.59;;;7.56;100.00
17260;BME280;8746;49.230;9.220;2023-02-19T02:18:15;100386.50;;;7.61;100.00
17260;BME280;8746;49.230;9.220;2023-02-19T02:32:14;100376.97;;;7.56;100.00
17260;BME280;8746;49.230;9.220;2023-02-19T02:34:55;100374.28;;;7.59;100.00
17260;BME280;8746;49.230;9.220;2023-02-19T02:37:24;100372.53;;;7.59;100.00
17260;BME280;8746;49.230;9.220;2023-02-19T02:39:52;100369.84;;;7.62;100.00
17260;BME280;8746;49.230;9.220;2023-02-19T02:42:18;100372.38;;;7.65;100.00
17260;BME280;8746;49.230;9.220;2023-02-19T02:44:53;100369.72;;;7.67;100.00
17260;BME280;8746;49.230;9.220;2023-02-19T02:47:50;100365.34;;;7.67;100.00
17260;BME280;8746;49.230;9.220;2023-02-19T02:50:25;100374.97;;;7.68;100.00
17260;BME280;8746;49.230;9.220;2023-02-19T02:52:59;100367.91;;;7.70;100.00
17260;BME280;8746;49.230;9.220;2023-02-19T02:55:46;100368.69;;;7.74;100.00
17260;BME280;8746;49.230;9.220;2023-02-19T02:58:13;100356.34;;;7.78;100.00
17260;BME280;8746;49.230;9.220;2023-02-19T03:00:42;100363.38;;;7.77;100.00
17260;BME280;8746;49.230;9.220;2023-02-19T03:03:29;100363.31;;;7.80;100.00
17260;BME280;8746;49.230;9.220;2023-02-19T03:06:00;100363.44;;;7.76;100.00
17260;BME280;8746;49.230;9.220;2023-02-19T03:08:30;100355.38;;;7.83;100.00
17260;BME280;8746;49.230;9.220;2023-02-19T03:11:05;100365.75;;;7.90;100.00
17260;BME280;8746;49.230;9.220;2023-02-19T03:13:55;100366.72;;;7.85;100.00
17260;BME280;8746;49.230;9.220;2023-02-19T03:16:43;100353.50;;;7.89;100.00
17260;BME280;8746;49.230;9.220;2023-02-19T03:19:30;100355.28;;;7.86;100.00
17260;BME280;8746;49.230;9.220;2023-02-19T03:22:07;100352.75;;;7.83;100.00
17260;BME280;8746;49.230;9.220;2023-02-19T03:24:41;100354.50;;;7.83;100.00
17260;BME280;8746;49.230;9.220;2023-02-19T03:27:29;100368.56;;;7.80;100.00
17260;BME280;8746;49.230;9.220;2023-02-19T03:30:02;100351.84;;;7.83;100.00
17260;BME280;8746;49.230;9.220;2023-02-19T03:32:59;100341.34;;;7.84;100.00
17260;BME280;8746;49.230;9.220;2023-02-19T03:35:30;100353.41;;;7.93;100.00
17260;BME280;8746;49.230;9.220;2023-02-19T03:38:43;100353.41;;;7.93;100.00
17260;BME280;8746;49.230;9.220;2023-02-19T03:41:16;100353.41;;;7.93;100.00
17260;BME280;8746;49.230;9.220;2023-02-19T03:43:53;100350.78;;;7.93;100.00
17260;BME280;8746;49.230;9.220;2023-02-19T03:46:31;100348.28;;;7.87;100.00
17260;BME280;8746;49.230;9.220;2023-02-19T03:49:03;100360.53;;;7.86;100.00
17260;BME280;8746;49.230;9.220;2023-02-19T03:51:42;100364.00;;;7.89;100.00
17260;BME280;8746;49.230;9.220;2023-02-19T03:54:30;100356.03;;;7.93;100.00
17260;BME280;8746;49.230;9.220;2023-02-19T03:57:03;100363.13;;;7.90;100.00
17260;BME280;8746;49.230;9.220;2023-02-19T03:59:34;100351.84;;;7.84;100.00
17260;BME280;8746;49.230;9.220;2023-02-19T04:02:09;100371.03;;;7.86;100.00
17260;BME280;8746;49.230;9.220;2023-02-19T04:04:40;100378.13;;;7.83;100.00
17260;BME280;8746;49.230;9.220;2023-02-19T04:07:07;100383.38;;;7.84;100.00
17260;BME280;8746;49.230;9.220;2023-02-19T04:09:39;100385.91;;;7.88;100.00
17260;BME280;8746;49.230;9.220;2023-02-19T04:12:05;100373.66;;;7.88;100.00
17260;BME280;8746;49.230;9.220;2023-02-19T04:17:07;100373.72;;;7.85;100.00
17260;BME280;8746;49.230;9.220;2023-02-19T04:19:36;100377.19;;;7.87;100.00
17260;BME280;8746;49.230;9.220;2023-02-19T04:22:05;100385.25;;;7.79;100.00
17260;BME280;8746;49.230;9.220;2023-02-19T04:24:35;100391.38;;;7.78;100.00
17260;BME280;8746;49.230;9.220;2023-02-19T04:27:03;100394.91;;;7.77;100.00
17260;BME280;8746;49.230;9.220;2023-02-19T04:29:29;100388.81;;;7.75;100.00
17260;BME280;8746;49.230;9.220;2023-02-19T04:31:55;100410.03;;;7.66;100.00
17260;BME280;8746;49.230;9.220;2023-02-19T04:34:20;100396.94;;;7.63;100.00
17260;BME280;8746;49.230;9.220;2023-02-19T04:36:45;100397.03;;;7.60;100.00
17260;BME280;8746;49.230;9.220;2023-02-19T04:39:11;100383.88;;;7.61;100.00
17260;BME280;8746;49.230;9.220;2023-02-19T04:41:36;100404.13;;;7.54;100.00
17260;BME280;8746;49.230;9.220;2023-02-19T04:44:01;100399.75;;;7.53;100.00
17260;BME280;8746;49.230;9.220;2023-02-19T04:46:27;100390.09;;;7.56;100.00
17260;BME280;8746;49.230;9.220;2023-02-19T04:48:52;100380.44;;;7.58;100.00
17260;BME280;8746;49.230;9.220;2023-02-19T04:51:17;100397.13;;;7.55;100.00
17260;BME280;8746;49.230;9.220;2023-02-19T04:53:43;100401.44;;;7.58;100.00
17260;BME280;8746;49.230;9.220;2023-02-19T04:56:10;100401.31;;;7.64;100.00
17260;BME280;8746;49.230;9.220;2023-02-19T04:58:36;100403.09;;;7.62;100.00
17260;BME280;8746;49.230;9.220;2023-02-19T05:01:03;100378.66;;;7.60;100.00
17260;BME280;8746;49.230;9.220;2023-02-19T05:03:29;100377.69;;;7.64;100.00
17260;BME280;8746;49.230;9.220;2023-02-19T05:05:54;100381.25;;;7.61;100.00
17260;BME280;8746;49.230;9.220;2023-02-19T05:08:20;100377.69;;;7.64;100.00
17260;BME280;8746;49.230;9.220;2023-02-19T05:10:45;100383.81;;;7.63;100.00
17260;BME280;8746;49.230;9.220;2023-02-19T05:13:10;100384.75;;;7.60;100.00
17260;BME280;8746;49.230;9.220;2023-02-19T05:15:36;100385.69;;;7.58;100.00
17260;BME280;8746;49.230;9.220;2023-02-19T05:18:01;100380.34;;;7.61;100.00
17260;BME280;8746;49.230;9.220;2023-02-19T05:20:26;100374.97;;;7.68;100.00
17260;BME280;8746;49.230;9.220;2023-02-19T05:22:52;100383.81;;;7.63;100.00
17260;BME280;8746;49.230;9.220;2023-02-19T05:25:17;100392.53;;;7.65;100.00
17260;BME280;8746;49.230;9.220;2023-02-19T05:27:43;100407.41;;;7.64;100.00
17260;BME280;8746;49.230;9.220;2023-02-19T05:30:09;100404.91;;;7.60;100.00
17260;BME280;8746;49.230;9.220;2023-02-19T05:32:35;100397.00;;;7.61;100.00
17260;BME280;8746;49.230;9.220;2023-02-19T05:35:01;100406.59;;;7.62;100.00
17260;BME280;8746;49.230;9.220;2023-02-19T05:37:26;100408.28;;;7.65;100.00
17260;BME280;8746;49.230;9.220;2023-02-19T05:39:51;100408.28;;;7.65;100.00
17260;BME280;8746;49.230;9.220;2023-02-19T05:42:17;100397.66;;;7.71;100.00
17260;BME280;8746;49.230;9.220;2023-02-19T05:44:42;100403.84;;;7.67;100.00
17260;BME280;8746;49.230;9.220;2023-02-19T05:47:07;100409.22;;;7.62;100.00
17260;BME280;8746;49.230;9.220;2023-02-19T05:49:33;100424.09;;;7.62;100.00
17260;BME280;8746;49.230;9.220;2023-02-19T05:51:58;100423.22;;;7.63;100.00
17260;BME280;8746;49.230;9.220;2023-02-19T05:54:24;100428.44;;;7.64;100.00
17260;BME280;8746;49.230;9.220;2023-02-19T05:56:49;100424.06;;;7.65;100.00
17260;BME280;8746;49.230;9.220;2023-02-19T05:59:19;100426.59;;;7.69;100.00
17260;BME280;8746;49.230;9.220;2023-02-19T06:01:46;100430.00;;;7.73;100.00
17260;BME280;8746;49.230;9.220;2023-02-19T06:04:12;100425.72;;;7.69;100.00
17260;BME280;8746;49.230;9.220;2023-02-19T06:06:39;100424.78;;;7.72;100.00
17260;BME280;8746;49.230;9.220;2023-02-19T06:09:06;100428.16;;;7.77;100.00
17260;BME280;8746;49.230;9.220;2023-02-19T06:11:31;100429.22;;;7.68;100.00
17260;BME280;8746;49.230;9.220;2023-02-19T06:13:57;100424.75;;;7.73;100.00
17260;BME280;8746;49.230;9.220;2023-02-19T06:16:22;100421.22;;;7.74;100.00
17260;BME280;8746;49.230;9.220;2023-02-19T06:18:49;100435.25;;;7.73;100.00
17260;BME280;8746;49.230;9.220;2023-02-19T06:21:15;100432.69;;;7.70;100.00
17260;BME280;8746;49.230;9.220;2023-02-19T06:23:42;100443.38;;;7.61;100.00
17260;BME280;8746;49.230;9.220;2023-02-19T06:26:17;100445.09;;;7.62;100.00
17260;BME280;8746;49.230;9.220;2023-02-19T06:28:43;100445.94;;;7.64;100.00
17260;BME280;8746;49.230;9.220;2023-02-19T06:31:10;100443.31;;;7.64;100.00
17260;BME280;8746;49.230;9.220;2023-02-19T06:33:36;100450.31;;;7.65;100.00
17260;BME280;8746;49.230;9.220;2023-02-19T06:36:06;100459.97;;;7.63;100.00
17260;BME280;8746;49.230;9.220;2023-02-19T06:38:32;100458.97;;;7.70;100.00
17260;BME280;8746;49.230;9.220;2023-02-19T06:41:01;100462.50;;;7.67;100.00
17260;BME280;8746;49.230;9.220;2023-02-19T06:43:27;100458.13;;;7.68;100.00
17260;BME280;8746;49.230;9.220;2023-02-19T06:45:53;100460.81;;;7.65;100.00
17260;BME280;8746;49.230;9.220;2023-02-19T06:48:19;100465.06;;;7.72;100.00
17260;BME280;8746;49.230;9.220;2023-02-19T06:50:44;100466.00;;;7.68;100.00
17260;BME280;8746;49.230;9.220;2023-02-19T06:53:09;100471.25;;;7.69;100.00
17260;BME280;8746;49.230;9.220;2023-02-19T06:55:36;100469.50;;;7.67;100.00
17260;BME280;8746;49.230;9.220;2023-02-19T06:58:02;100472.25;;;7.62;100.00
17260;BME280;8746;49.230;9.220;2023-02-19T07:00:28;100484.47;;;7.63;100.00
17260;BME280;8746;49.230;9.220;2023-02-19T07:02:53;100491.53;;;7.61;100.00
17260;BME280;8746;49.230;9.220;2023-02-19T07:05:21;100502.84;;;7.65;100.00
17260;BME280;8746;49.230;9.220;2023-02-19T07:07:46;100500.22;;;7.63;100.00
17260;BME280;8746;49.230;9.220;2023-02-19T07:10:12;100500.13;;;7.68;100.00
17260;BME280;8746;49.230;9.220;2023-02-19T07:12:37;100511.47;;;7.70;100.00
17260;BME280;8746;49.230;9.220;2023-02-19T07:15:03;100527.25;;;7.70;100.00
17260;BME280;8746;49.230;9.220;2023-02-19T07:17:28;100524.41;;;7.81;100.00
17260;BME280;8746;49.230;9.220;2023-02-19T07:19:54;100525.09;;;7.91;100.00
17260;BME280;8746;49.230;9.220;2023-02-19T07:22:19;100523.38;;;7.90;100.00
17260;BME280;8746;49.230;9.220;2023-02-19T07:24:44;100525.03;;;7.94;100.00
17260;BME280;8746;49.230;9.220;2023-02-19T07:27:10;100529.34;;;7.98;100.00
17260;BME280;8746;49.230;9.220;2023-02-19T07:29:35;100545.03;;;8.01;100.00
17260;BME280;8746;49.230;9.220;2023-02-19T07:32:00;100544.09;;;8.05;100.00
17260;BME280;8746;49.230;9.220;2023-02-19T07:34:26;100544.09;;;8.05;100.00
17260;BME280;8746;49.230;9.220;2023-02-19T07:36:51;100552.66;;;8.13;100.00
17260;BME280;8746;49.230;9.220;2023-02-19T07:39:17;100544.81;;;8.12;100.00
17260;BME280;8746;49.230;9.220;2023-02-19T07:41:42;100550.81;;;8.18;100.00
17260;BME280;8746;49.230;9.220;2023-02-19T07:44:08;100549.09;;;8.16;100.00
17260;BME280;8746;49.230;9.220;2023-02-19T07:46:33;100557.69;;;8.26;100.00
17260;BME280;8746;49.230;9.220;2023-02-19T07:48:58;100557.72;;;8.23;100.00
17260;BME280;8746;49.230;9.220;2023-02-19T07:51:24;100558.59;;;8.23;100.00
17260;BME280;8746;49.230;9.220;2023-02-19T07:53:50;100558.59;;;8.25;100.00
17260;BME280;8746;49.230;9.220;2023-02-19T07:56:16;100556.81;;;8.25;100.00
17260;BME280;8746;49.230;9.220;2023-02-19T07:58:41;100560.31;;;8.26;100.00
17260;BME280;8746;49.230;9.220;2023-02-19T08:01:07;100563.75;;;8.28;100.00
17260;BME280;8746;49.230;9.220;2023-02-19T08:03:34;100564.69;;;8.25;100.00
17260;BME280;8746;49.230;9.220;2023-02-19T08:06:00;100562.88;;;8.29;100.00
17260;BME280;8746;49.230;9.220;2023-02-19T08:08:25;100570.72;;;8.30;100.00
17260;BME280;8746;49.230;9.220;2023-02-19T08:10:50;100576.84;;;8.31;100.00
17260;BME280;8746;49.230;9.220;2023-02-19T08:13:34;100582.03;;;8.34;100.00
17260;BME280;8746;49.230;9.220;2023-02-19T08:18:30;100575.84;;;8.37;100.00
17260;BME280;8746;49.230;9.220;2023-02-19T08:20:56;100574.06;;;8.39;100.00
17260;BME280;8746;49.230;9.220;2023-02-19T08:23:23;100582.84;;;8.38;100.00
17260;BME280;8746;49.230;9.220;2023-02-19T08:25:50;100574.81;;;8.45;100.00
17260;BME280;8746;49.230;9.220;2023-02-19T08:28:16;100581.81;;;8.46;100.00
17260;BME280;8746;49.230;9.220;2023-02-19T08:30:43;100591.47;;;8.44;100.00
17260;BME280;8746;49.230;9.220;2023-02-19T08:33:11;100587.00;;;8.49;100.00
17260;BME280;8746;49.230;9.220;2023-02-19T08:35:36;100588.84;;;8.44;100.00
17260;BME280;8746;49.230;9.220;2023-02-19T08:38:03;100595.66;;;8.55;100.00
17260;BME280;8746;49.230;9.220;2023-02-19T08:40:29;100597.25;;;8.62;100.00
17260;BME280;8746;49.230;9.220;2023-02-19T08:42:54;100594.50;;;8.68;99.77
17260;BME280;8746;49.230;9.220;2023-02-19T08:45:19;100596.72;;;8.87;98.96
17260;BME280;8746;49.230;9.220;2023-02-19T08:47:45;100603.28;;;8.69;99.52
17260;BME280;8746;49.230;9.220;2023-02-19T08:50:11;100603.19;;;8.72;99.31
17260;BME280;8746;49.230;9.220;2023-02-19T08:52:37;100604.69;;;8.84;98.89
17260;BME280;8746;49.230;9.220;2023-02-19T08:55:03;100604.88;;;8.74;99.22
17260;BME280;8746;49.230;9.220;2023-02-19T08:57:29;100608.25;;;8.81;99.03
17260;BME280;8746;49.230;9.220;2023-02-19T08:59:55;100608.22;;;8.82;98.71
17260;BME280;8746;49.230;9.220;2023-02-19T09:02:22;100621.22;;;8.89;98.76
17260;BME280;8746;49.230;9.220;2023-02-19T09:04:47;100608.84;;;8.94;98.45
17260;BME280;8746;49.230;9.220;2023-02-19T09:07:13;100620.00;;;9.04;97.89
17260;BME280;8746;49.230;9.220;2023-02-19T09:09:39;100613.94;;;9.00;97.62
17260;BME280;8746;49.230;9.220;2023-02-19T09:12:09;100625.31;;;9.02;96.31
17260;BME280;8746;49.230;9.220;2023-02-19T09:14:35;100624.28;;;9.09;97.01
17260;BME280;8746;49.230;9.220;2023-02-19T09:17:03;100624.56;;;9.35;96.09
17260;BME280;8746;49.230;9.220;2023-02-19T09:19:29;100630.91;;;9.26;95.53
17260;BME280;8746;49.230;9.220;2023-02-19T09:21:55;100629.63;;;9.42;95.11
17260;BME280;8746;49.230;9.220;2023-02-19T09:24:20;100633.84;;;9.50;94.56
17260;BME280;8746;49.230;9.220;2023-02-19T09:26:52;100637.38;;;9.49;93.82
17260;BME280;8746;49.230;9.220;2023-02-19T09:29:18;100648.28;;;9.33;94.24
17260;BME280;8746;49.230;9.220;2023-02-19T09:31:44;100649.97;;;9.37;94.45
17260;BME280;8746;49.230;9.220;2023-02-19T09:34:10;100651.00;;;9.30;94.22
17260;BME280;8746;49.230;9.220;2023-02-19T09:36:39;100653.75;;;9.25;94.53
17260;BME280;8746;49.230;9.220;2023-02-19T09:39:05;100653.56;;;9.33;93.60
17260;BME280;8746;49.230;9.220;2023-02-19T09:41:42;100659.66;;;9.35;93.63
17260;BME280;8746;49.230;9.220;2023-02-19T09:44:12;100654.25;;;9.41;92.00
17260;BME280;8746;49.230;9.220;2023-02-19T09:46:47;100657.72;;;9.43;91.44
17260;BME280;8746;49.230;9.220;2023-02-19T09:51:52;100675.34;;;9.40;91.68
17260;BME280;8746;49.230;9.220;2023-02-19T09:54:21;100674.41;;;9.42;92.06
17260;BME280;8746;49.230;9.220;2023-02-19T09:56:48;100674.47;;;9.39;91.98
17260;BME280;8746;49.230;9.220;2023-02-19T09:59:20;100670.34;;;9.29;92.61
17260;BME280;8746;49.230;9.220;2023-02-19T10:01:48;100672.22;;;9.24;93.24
17260;BME280;8746;49.230;9.220;2023-02-19T10:04:16;100666.50;;;9.42;91.69
17260;BME280;8746;49.230;9.220;2023-02-19T10:06:41;100662.28;;;9.35;91.79
17260;BME280;8746;49.230;9.220;2023-02-19T10:09:24;100665.78;;;9.36;91.96
17260;BME280;8746;49.230;9.220;2023-02-19T10:11:53;100671.72;;;9.44;91.40
17260;BME280;8746;49.230;9.220;2023-02-19T10:14:40;100686.53;;;9.50;90.31
17260;BME280;8746;49.230;9.220;2023-02-19T10:17:16;100666.66;;;9.36;90.31
17260;BME280;8746;49.230;9.220;2023-02-19T10:19:45;100679.03;;;9.33;91.28
17260;BME280;8746;49.230;9.220;2023-02-19T10:22:10;100694.19;;;9.23;91.19
17260;BME280;8746;49.230;9.220;2023-02-19T10:24:39;100691.84;;;9.09;91.66
17260;BME280;8746;49.230;9.220;2023-02-19T10:27:11;100692.72;;;9.09;91.52
17260;BME280;8746;49.230;9.220;2023-02-19T10:29:37;100689.28;;;9.06;92.34
17260;BME280;8746;49.230;9.220;2023-02-19T10:32:19;100685.00;;;9.02;93.46
17260;BME280;8746;49.230;9.220;2023-02-19T10:35:06;100695.22;;;9.16;93.37
17260;BME280;8746;49.230;9.220;2023-02-19T10:37:33;100689.56;;;9.33;93.53
17260;BME280;8746;49.230;9.220;2023-02-19T10:39:59;100686.19;;;9.63;92.28
17260;BME280;8746;49.230;9.220;2023-02-19T10:42:25;100692.06;;;9.39;91.61
17260;BME280;8746;49.230;9.220;2023-02-19T10:44:55;100698.06;;;9.44;91.00
17260;BME280;8746;49.230;9.220;2023-02-19T10:47:25;100700.13;;;9.31;90.96
17260;BME280;8746;49.230;9.220;2023-02-19T10:49:52;100709.88;;;9.27;91.01
17260;BME280;8746;49.230;9.220;2023-02-19T10:52:30;100725.50;;;9.35;91.34
17260;BME280;8746;49.230;9.220;2023-02-19T10:55:24;100727.03;;;9.44;90.84
17260;BME280;8746;49.230;9.220;2023-02-19T10:57:50;100730.66;;;9.38;90.32
17260;BME280;8746;49.230;9.220;2023-02-19T11:02:44;100728.06;;;9.37;91.01
17260;BME280;8746;49.230;9.220;2023-02-19T11:07:50;100731.13;;;9.57;90.30
17260;BME280;8746;49.230;9.220;2023-02-19T11:10:25;100723.97;;;9.64;90.85
17260;BME280;8746;49.230;9.220;2023-02-19T11:12:55;100723.06;;;9.63;90.73
17260;BME280;8746;49.230;9.220;2023-02-19T11:15:26;100729.97;;;9.69;90.52
17260;BME280;8746;49.230;9.220;2023-02-19T11:20:21;100734.19;;;9.76;89.27
17260;BME280;8746;49.230;9.220;2023-02-19T11:22:47;100733.25;;;9.79;87.93
17260;BME280;8746;49.230;9.220;2023-02-19T11:28:05;100722.22;;;9.99;86.76
17260;BME280;8746;49.230;9.220;2023-02-19T11:30:44;100713.88;;;10.16;86.29
17260;BME280;8746;49.230;9.220;2023-02-19T11:35:42;100723.84;;;10.39;84.75
17260;BME280;8746;49.230;9.220;2023-02-19T11:38:10;100722.22;;;10.32;83.85
17260;BME280;8746;49.230;9.220;2023-02-19T11:44:00;100715.16;;;10.34;83.75
17260;BME280;8746;49.230;9.220;2023-02-19T11:49:27;100726.25;;;10.49;83.73
17260;BME280;8746;49.230;9.220;2023-02-19T11:52:27;100735.28;;;10.38;83.08
17260;BME280;8746;49.230;9.220;2023-02-19T11:57:45;100734.94;;;10.52;83.26
17260;BME280;8746;49.230;9.220;2023-02-19T12:05:52;100709.72;;;10.73;81.83
17260;BME280;8746;49.230;9.220;2023-02-19T12:22:32;100744.22;;;10.31;81.61
17260;BME280;8746;49.230;9.220;2023-02-19T12:25:23;100721.97;;;10.43;81.54
17260;BME280;8746;49.230;9.220;2023-02-19T12:28:08;100716.47;;;10.52;81.41
17260;BME280;8746;49.230;9.220;2023-02-19T12:38:43;100729.22;;;10.36;81.20
17260;BME280;8746;49.230;9.220;2023-02-19T12:41:38;100725.28;;;10.51;81.21
17260;BME280;8746;49.230;9.220;2023-02-19T12:44:16;100721.47;;;10.62;80.77
17260;BME280;8746;49.230;9.220;2023-02-19T12:46:48;100732.19;;;10.55;81.28
17260;BME280;8746;49.230;9.220;2023-02-19T12:52:00;100723.94;;;10.68;79.98
17260;BME280;8746;49.230;9.220;2023-02-19T12:54:37;100711.63;;;10.68;79.28
17260;BME280;8746;49.230;9.220;2023-02-19T12:59:46;100701.34;;;10.89;79.12
17260;BME280;8746;49.230;9.220;2023-02-19T13:05:33;100698.13;;;11.37;77.24
17260;BME280;8746;49.230;9.220;2023-02-19T13:10:41;100711.63;;;11.28;77.48
17260;BME280;8746;49.230;9.220;2023-02-19T13:13:24;100724.63;;;11.06;78.99
17260;BME280;8746;49.230;9.220;2023-02-19T13:15:55;100726.06;;;11.45;77.89
17260;BME280;8746;49.230;9.220;2023-02-19T13:18:36;100719.88;;;11.17;77.69
17260;BME280;8746;49.230;9.220;2023-02-19T13:21:04;100710.22;;;11.16;78.59
17260;BME280;8746;49.230;9.220;2023-02-19T13:23:32;100707.00;;;11.06;79.88
17260;BME280;8746;49.230;9.220;2023-02-19T13:34:54;100694.91;;;10.68;80.50
17260;BME280;8746;49.230;9.220;2023-02-19T13:37:25;100706.25;;;10.71;80.49
17260;BME280;8746;49.230;9.220;2023-02-19T13:39:52;100693.94;;;10.72;80.66
17260;BME280;8746;49.230;9.220;2023-02-19T13:42:27;100699.41;;;10.64;81.17
17260;BME280;8746;49.230;9.220;2023-02-19T13:44:56;100699.34;;;10.67;82.16
17260;BME280;8746;49.230;9.220;2023-02-19T13:50:21;100686.88;;;10.06;87.90
17260;BME280;8746;49.230;9.220;2023-02-19T13:52:47;100690.88;;;9.87;89.04
17260;BME280;8746;49.230;9.220;2023-02-19T13:58:36;100687.31;;;9.89;90.38
17260;BME280;8746;49.230;9.220;2023-02-19T14:01:08;100674.91;;;9.93;89.16
17260;BME280;8746;49.230;9.220;2023-02-19T14:03:53;100684.41;;;10.00;86.51
17260;BME280;8746;49.230;9.220;2023-02-19T14:06:19;100693.66;;;10.15;87.80
17260;BME280;8746;49.230;9.220;2023-02-19T14:11:13;100694.91;;;10.36;85.91
17260;BME280;8746;49.230;9.220;2023-02-19T14:16:47;100699.25;;;10.39;83.44
17260;BME280;8746;49.230;9.220;2023-02-19T14:19:44;100711.53;;;10.40;83.68
17260;BME280;8746;49.230;9.220;2023-02-19T14:33:33;100718.28;;;10.50;82.30
17260;BME280;8746;49.230;9.220;2023-02-19T14:38:50;100717.41;;;10.50;82.53
17260;BME280;8746;49.230;9.220;2023-02-19T14:41:18;100719.28;;;10.45;83.30
17260;BME280;8746;49.230;9.220;2023-02-19T14:43:48;100736.31;;;10.31;83.09
17260;BME280;8746;49.230;9.220;2023-02-19T14:46:33;100740.06;;;10.24;83.31
17260;BME280;8746;49.230;9.220;2023-02-19T14:49:22;100739.28;;;10.19;82.14
17260;BME280;8746;49.230;9.220;2023-02-19T14:52:01;100746.28;;;10.20;82.68
17260;BME280;8746;49.230;9.220;2023-02-19T14:57:21;100750.97;;;10.08;82.15
17260;BME280;8746;49.230;9.220;2023-02-19T15:02:19;100752.88;;;10.02;82.96
17260;BME280;8746;49.230;9.220;2023-02-19T15:04:45;100766.22;;;9.97;83.32
17260;BME280;8746;49.230;9.220;2023-02-19T15:07:19;100759.31;;;9.91;84.06
17260;BME280;8746;49.230;9.220;2023-02-19T15:09:54;100763.53;;;9.99;83.85
17260;BME280;8746;49.230;9.220;2023-02-19T15:12:27;100758.47;;;9.91;83.97
17260;BME280;8746;49.230;9.220;2023-02-19T15:14:56;100754.16;;;9.87;83.42
17260;BME280;8746;49.230;9.220;2023-02-19T15:17:26;100755.03;;;9.87;83.57
17260;BME280;8746;49.230;9.220;2023-02-19T15:19:54;100748.03;;;9.85;84.20
17260;BME280;8746;49.230;9.220;2023-02-19T15:22:23;100752.59;;;9.78;84.59